Pagina principale
METAR-TAF:

METAR-TAF

Aeroporti :

Aeroporto di Cefalonia

Cefalonia, Grecia

latitudine: 38-07N, longitudine: 020-30E, altezza: 19 m

Osservazione

Il bollettino è stato emesso 9 ore e 36 minuti fa, alle 17:50 UTC
Vento 9 kt da nord-ovest
Temperature 12°C
Umidità 71%
Pressione 1024 hPa
Visibilità 10 km o più
Poco nuvoloso ad un'altezza di 1600 ft

METAR: LGKF 231750Z 32009KT 9999 FEW016 12/07 Q1024

Ora: 05:26 (03:26 UTC)

Previsione

Il bollettino è stato emesso 1 ora e 26 minuti fa, alle 02:00 UTC
Previsione valida dal 24 alle 03 UTC al 24 alle 12 UTC
Vento 8 kt da nord-ovest
Visibilità 10 km o più
Poco nuvoloso ad un'altezza di 1800 ft

TAF: LGKF 240200Z 2403/2412 32008KT 9999 FEW018

Osservazioni e previsioni meteorologiche di più di 4000 aeroporti (messaggi METAR e TAF).

Le stazioni disponibili sono rappresentate dai dischi gialli e rossi sulla carta.

Puntare il mouse per vedere il nome della stazione.

Clicca sopra per visualizzare le osservazioni e previsioni meteorologiche.

Per cambiare la mappa : fare clic sui pulsanti verdi con una croce nera per ingrandire, il pulsante verde con un trattino per diminuire, o sulla freccia verde per le mappe adiacenti.


METAR-TAF: